Airfield :
LOGIN :

Register | Disclaimer

   EN    FR    IT 

 










Legend :    VFR   Marginal VFR   IFR   Intensive IFR   Very Intensive IFR
Visi :
Ceiling :
>= 8 km
>= 3000ft
5 to 8 km
1000 to 3000 ft
1500m to 5 km
500 to 1000 ft
800 to 1500m
200 to 500 ft
< 800m
< 200 ft
Symbols :   Thunderstorms  Fog  Heavy snow  Heavy precipitations  Wind > 20 kt
SIGMETs :     Misc.  Thunderstorms  Icing  Turbulence  Mountain Waves  Volcanic Ashes






- Airport Elevation : 215 ft
- IATA code : ABZ


EGPD - Aberdeen / Dyce

CURRENT METAR :
  • 011320Z AUTO 17006KT 9999 NCD 06/03 Q1024 NOSIG

EXPIRED METARs :
  • 011250Z AUTO 19004KT 9999 NCD 06/03 Q1024 NOSIG
  • 011220Z AUTO VRB03KT 9999 NCD 07/03 Q1025 NOSIG
  • 011150Z AUTO VRB03KT 9999 NCD 06/03 Q1025 NOSIG
  • 011120Z AUTO VRB01KT 9999 NCD 05/02 Q1025 NOSIG
  • 011050Z AUTO VRB02KT 9999 NCD 04/02 Q1025 NOSIG

TAF TAF EGPD
Valid from the 01 at 12:00 until the 02 at 12:00 UTC


011103Z 0112/0212 18004KT 9999 FEW030
TEMPO 0118/0203 7000
PROB30 0121/0201 4000 BR MIFG
TEMPO 0203/0206 BKN012
PROB30
TEMPO 0203/0206 6000 RADZ BKN006
BECMG 0206/0209 24010KT



MET'MAP, your aeronautical weather chart ! - Copyright ORBIFLY December 2007 - Disclaimer

ORBIFLY MET'MAP TEAM :

Programming & Development : Alexandra Zaïnal
Concept & original design : Baudouin d'Aumeries
Assistance for programming : Marc-Olivier Méhu
Technical & hardware support : Manuel Goepfert

Contact : metmap@orbifly.com




SOURCES & CREDITS :

   NOAA